• Join FlightAware (Why Join?)
  • Login
  • US Flag 
08:26PM EST


 

Airport Tracker/Info


-or-


 

Live Flight TrackerFlight Track Log ✈ GJS3615 ✈ 25-Apr-2013 ✈ KORD - KGSO

Flight Track Log - Related Links

Times and Time Zones

All times are in EDT time to prevent confusion due to time zone crossing. See the GJS3615 flight status page for this flight to view local times or setup timezone preferences in your user account.

Time Position Orientation Groundspeed Altitude Reporting Facility
EDT Latitude Longitude Course Direction KTS MPH feet Rate Location/Type
10:53AM 41.8667 -87.9000 180° South 248 285 4,700  Level Chicago TRACON
10:54AM 41.8058 -87.8797 166° South 254 292 6,300 2,100 Climbing Chicago Center
10:55AM 41.7381 -87.8336 153° Southeast 273 314 9,200 2,580 Climbing Chicago Center
10:56AM 41.5631 -87.2654 166° South  Level Estimated
10:56AM 41.6508 -87.7608 148° Southeast 304 350 11,600  Level Chicago Center
10:57AM 41.4790 -87.1381 166° South  Level Estimated
10:57AM 41.5703 -87.6950 149° Southeast 331 381 14,000  Level Chicago Center
10:58AM 41.4881 -87.6239 147° Southeast 344 396 16,900 2,580 Climbing Chicago Center
10:59AM 41.3983 -87.5686 155° Southeast 357 411 19,400 2,400 Climbing Chicago Center
11:00AM 41.3011 -87.5514 172° South 358 412 21,900 1,800 Climbing Chicago Center
11:02AM 41.0983 -87.5083 171° South 392 451 24,600 1,440 Climbing Indianapolis Center
11:03AM 40.9792 -87.4753 168° South 426 490 26,100 1,320 Climbing Indianapolis Center
11:04AM 40.8575 -87.4397 168° South 444 511 27,400 1,440 Climbing Indianapolis Center
11:05AM 40.7306 -87.4078 169° South 457 526 29,100 1,440 Climbing Indianapolis Center
11:06AM 40.6028 -87.3744 169° South 464 534 30,400 1,080 Climbing Indianapolis Center
11:07AM 40.4728 -87.3389 168° South 473 544 31,400 1,020 Climbing Indianapolis Center
11:08AM 40.3311 -87.2219 148° Southeast 515 593 32,600 1,020 Climbing Indianapolis Center
11:09AM 40.2111 -87.1106 145° Southeast 524 603 33,600 960 Climbing Indianapolis Center
11:10AM 40.0917 -86.9997 145° Southeast 526 605 34,600 960 Climbing Indianapolis Center
11:11AM 39.9719 -86.8881 144° Southeast 527 606 35,600 960 Climbing Indianapolis Center
11:12AM 39.8733 -86.7431 132° Southeast 537 618 36,700 1,020 Climbing Indianapolis Center
11:13AM 39.7811 -86.5914 128° Southeast 535 616 37,700 1,020 Climbing Indianapolis Center
11:14AM 39.6767 -86.4208 128° Southeast 524 603 38,900 600 Climbing Indianapolis Center
11:15AM 39.5889 -86.2783 129° Southeast 518 596 39,000  Climbing Indianapolis Center
11:16AM 39.5006 -86.1350 129° Southeast 512 589 39,000  Level Indianapolis Center
11:17AM 39.4125 -85.9933 129° Southeast 507 583 39,000  Level Indianapolis Center
11:18AM 39.3236 -85.8508 129° Southeast 507 583 39,000  Level Indianapolis Center
11:19AM 39.2344 -85.7092 129° Southeast 506 582 39,000  Level Indianapolis Center
11:20AM 39.1311 -85.5431 129° Southeast 506 582 39,000  Level Indianapolis Center
11:21AM 39.0403 -85.4014 128° Southeast 511 588 39,000  Level Indianapolis Center
11:22AM 39.0378 -85.3904 128° Southeast  Level FlightAware Approximate
11:22AM 38.9492 -85.2575 129° Southeast 514 592 39,000  Level Indianapolis Center
11:23AM 38.8589 -85.1144 129° Southeast 514 592 39,000  Level Indianapolis Center
11:24AM 38.7661 -84.9722 130° Southeast 516 594 39,000  Level Indianapolis Center
11:25AM 38.6753 -84.8294 129° Southeast 515 593 39,000  Level Indianapolis Center
11:26AM 38.5817 -84.6803 129° Southeast 519 597 39,000  Level Indianapolis Center
11:27AM 38.4886 -84.5397 130° Southeast 520 598 39,000 -360 Level Indianapolis Center
11:28AM 38.3786 -84.3714 130° Southeast 530 610 38,300 -840 Descending Indianapolis Center
11:29AM 38.2828 -84.2247 130° Southeast 538 619 37,300 -660 Descending Indianapolis Center
11:31AM 38.1847 -84.0789 131° Southeast 540 621 37,000 -240 Descending Indianapolis Center
11:32AM 38.0897 -83.9383 131° Southeast 524 603 36,900 -600 Descending Indianapolis Center
11:33AM 37.9878 -83.8119 136° Southeast 511 588 35,800 -1,380 Descending Indianapolis Center
11:34AM 37.8889 -83.6858 135° Southeast 503 579 34,100 -1,860 Descending Indianapolis Center
11:35AM 37.7781 -83.5428 134° Southeast 487 560 32,000 -1,920 Descending Indianapolis Center
11:36AM 37.6806 -83.4219 136° Southeast 487 560 30,200 -1,020 Descending Indianapolis Center
11:37AM 37.5953 -83.2789 127° Southeast 507 583 30,000 -180 Descending Indianapolis Center
11:38AM 37.5033 -83.1358 129° Southeast 518 596 29,900 -480 Descending Indianapolis Center
11:39AM 37.4119 -82.9897 128° Southeast 525 604 29,100 -780 Descending Indianapolis Center
11:40AM 37.3206 -82.8453 128° Southeast 525 604 28,400 -720 Descending Indianapolis Center
11:41AM 37.2292 -82.7025 129° Southeast 521 600 27,700 -720 Descending Indianapolis Center
11:42AM 37.1383 -82.5606 129° Southeast 516 594 27,000 -360 Descending Indianapolis Center
11:43AM 37.0333 -82.3997 129° Southeast 507 583 27,000  Level Indianapolis Center
11:43AM 36.9911 -82.3342 129° Southeast 493 567 27,000  Level Atlanta Center
11:44AM 36.9017 -82.1983 129° Southeast 481 554 27,000  Level Atlanta Center
11:45AM 36.8225 -82.0758 129° Southeast 505 581 27,000 -540 Level Atlanta Center
11:46AM 36.7411 -81.9431 127° Southeast 494 568 26,000 -1,320 Descending Atlanta Center
11:47AM 36.6594 -81.8081 127° Southeast 494 568 24,400 -1,680 Descending Atlanta Center
11:48AM 36.5819 -81.6811 127° Southeast 474 545 22,700 -1,800 Descending Atlanta Center
11:49AM 36.5003 -81.5464 127° Southeast 457 526 20,800 -1,560 Descending Atlanta Center
11:50AM 36.4353 -81.4400 127° Southeast 440 506 19,600 -1,440 Descending Atlanta Center
11:51AM 36.3664 -81.3314 128° Southeast 420 483 18,000 -1,380 Descending Atlanta Center
11:52AM 36.2992 -81.2178 126° Southeast 409 471 16,900 -1,260 Descending Atlanta Center
11:53AM 36.2317 -81.1044 126° Southeast 409 471 15,500 -1,500 Descending Atlanta Center
11:54AM 36.1728 -80.9908 123° Southeast 403 464 14,000 -1,500 Descending Atlanta Center
11:55AM 36.1544 -80.8422 99° East 389 448 12,600 -1,440 Descending Atlanta Center
11:56AM 36.1364 -80.7119 100° East 389 448 11,200 -840 Descending Atlanta Center
11:57AM 36.1203 -80.5867 99° East 384 442 11,000 -360 Descending Atlanta Center
11:58AM 36.0961 -80.4719 105° East 362 417 10,500 -1,200 Descending Atlanta Center
11:59AM 36.0539 -80.3839 121° Southeast 325 374 8,700 -1,920 Descending Atlanta Center
12:00PM 36.0061 -80.3169 131° Southeast 305 351 6,700 -1,800 Descending Atlanta Center
12:01PM 35.9600 -80.2444 128° Southeast 281 323 5,100 -1,500 Descending Atlanta Center
12:02PM 35.9247 -80.1822 125° Southeast 249 287 3,700 -1,080 Descending Atlanta Center
12:03PM 35.9497 -80.1142 66° East 185 213 3,000 -360 Descending Atlanta Center
12:04PM 35.9942 -80.0683 40° Northeast 165 190 3,000  Level Atlanta Center